createdAt,value
2023-04-30T00:00:15.662Z,84.67
2023-04-30T00:03:22.516Z,84.44
2023-04-30T00:06:28.653Z,84.38
2023-04-30T00:09:38.653Z,83.91
2023-04-30T00:12:44.541Z,83.90
2023-04-30T00:15:51.642Z,83.68
2023-04-30T00:18:57.611Z,83.07
2023-04-30T00:22:05.800Z,82.90
2023-04-30T00:25:14.433Z,83.37
2023-04-30T00:28:21.187Z,82.91
2023-04-30T00:31:27.213Z,82.32
2023-04-30T00:34:34.058Z,82.41
2023-04-30T00:37:39.979Z,82.77
2023-04-30T00:40:50.648Z,82.65
2023-04-30T00:43:56.700Z,83.08
2023-04-30T00:47:04.196Z,83.08
2023-04-30T00:50:18.466Z,83.79
2023-04-30T00:53:25.414Z,83.65
2023-04-30T00:56:36.377Z,84.17
2023-04-30T00:59:45.574Z,83.93
2023-04-30T01:02:53.112Z,84.55
2023-04-30T01:06:00.016Z,84.65
2023-04-30T01:09:06.342Z,84.63
2023-04-30T01:12:29.829Z,83.92
2023-04-30T01:15:49.201Z,84.42
2023-04-30T01:19:05.100Z,83.79
2023-04-30T01:22:24.634Z,83.27
2023-04-30T01:26:05.311Z,82.74
2023-04-30T01:29:19.815Z,82.36
2023-04-30T01:32:27.013Z,82.60
2023-04-30T01:36:13.946Z,82.21
2023-04-30T01:39:51.892Z,81.43
2023-04-30T01:43:15.573Z,82.04
2023-04-30T01:46:33.585Z,81.86
2023-04-30T01:49:59.008Z,82.11
2023-04-30T01:53:12.887Z,81.65
2023-04-30T01:56:34.430Z,81.46
2023-04-30T01:59:43.013Z,81.41
2023-04-30T02:02:52.475Z,82.63
2023-04-30T02:05:59.493Z,83.24
2023-04-30T02:09:07.362Z,83.65
2023-04-30T02:12:13.358Z,83.16
2023-04-30T02:15:20.851Z,84.00
2023-04-30T02:18:41.405Z,83.97
2023-04-30T02:21:52.213Z,83.71
2023-04-30T02:24:58.538Z,84.03
2023-04-30T02:28:05.388Z,83.89
2023-04-30T02:31:11.525Z,84.08
2023-04-30T02:34:21.133Z,83.33
2023-04-30T02:37:27.407Z,84.16
2023-04-30T02:40:34.466Z,84.38
2023-04-30T02:43:40.595Z,84.15
2023-04-30T02:46:47.316Z,85.20
2023-04-30T02:49:56.140Z,84.85
2023-04-30T02:53:03.296Z,85.93
2023-04-30T02:56:12.495Z,85.24
2023-04-30T02:59:22.771Z,86.41
2023-04-30T03:02:28.846Z,85.16
2023-04-30T03:05:38.514Z,83.99
2023-04-30T03:08:44.619Z,82.50
2023-04-30T03:11:52.281Z,83.65
2023-04-30T03:14:58.396Z,83.88
2023-04-30T03:18:05.135Z,84.28
2023-04-30T03:21:13.909Z,84.52
2023-04-30T03:24:21.023Z,85.03
2023-04-30T03:27:28.137Z,84.60
2023-04-30T03:30:34.895Z,85.00
2023-04-30T03:33:40.868Z,84.59
2023-04-30T03:36:50.284Z,83.74
2023-04-30T03:39:56.511Z,83.70
2023-04-30T03:43:03.630Z,83.52
2023-04-30T03:46:09.564Z,83.52
2023-04-30T03:49:16.723Z,84.10
2023-04-30T03:52:25.361Z,84.43
2023-04-30T03:55:32.799Z,84.71
2023-04-30T03:58:41.546Z,83.72
2023-04-30T04:01:48.624Z,84.21
2023-04-30T04:04:55.751Z,83.92
2023-04-30T04:08:06.751Z,84.73
2023-04-30T04:11:13.007Z,84.56
2023-04-30T04:14:19.911Z,85.08
2023-04-30T04:17:26.234Z,84.92
2023-04-30T04:20:33.158Z,85.03
2023-04-30T04:23:41.761Z,84.96
2023-04-30T04:26:48.733Z,84.69
2023-04-30T04:29:55.575Z,84.67
2023-04-30T04:33:02.828Z,84.59
2023-04-30T04:36:09.601Z,84.46
2023-04-30T04:39:19.199Z,83.93
2023-04-30T04:42:25.198Z,84.25
2023-04-30T04:45:32.279Z,83.93
2023-04-30T04:48:38.293Z,82.99
2023-04-30T04:51:45.145Z,82.46
2023-04-30T04:54:53.660Z,81.32
2023-04-30T04:58:00.673Z,81.55
2023-04-30T05:01:07.251Z,81.74
2023-04-30T05:04:14.430Z,81.14
2023-04-30T05:07:21.008Z,80.83
2023-04-30T05:10:30.572Z,80.67
2023-04-30T05:13:36.706Z,81.03
2023-04-30T05:16:43.625Z,80.78
2023-04-30T05:19:50.952Z,80.56
2023-04-30T05:22:57.784Z,80.71
2023-04-30T05:26:12.011Z,80.81
2023-04-30T05:29:18.818Z,80.66
2023-04-30T05:32:26.547Z,80.04
2023-04-30T05:35:36.337Z,80.27
2023-04-30T05:38:42.293Z,80.29
2023-04-30T05:41:52.890Z,79.79
2023-04-30T05:44:59.401Z,79.04
2023-04-30T05:48:06.310Z,78.82
2023-04-30T05:51:14.873Z,78.19
2023-04-30T05:54:23.237Z,77.85
2023-04-30T05:57:33.357Z,76.86
2023-04-30T06:00:40.791Z,76.79
2023-04-30T06:03:46.780Z,76.01
2023-04-30T06:06:53.528Z,74.51
2023-04-30T06:09:59.741Z,73.36
2023-04-30T06:13:10.293Z,73.64
2023-04-30T06:16:16.317Z,70.11
2023-04-30T06:19:23.444Z,68.75
2023-04-30T06:22:29.408Z,66.76
2023-04-30T06:25:37.574Z,65.25
2023-04-30T06:28:46.623Z,65.52
2023-04-30T06:31:53.998Z,64.09
2023-04-30T06:35:00.035Z,64.23
2023-04-30T06:38:07.221Z,64.67
2023-04-30T06:41:13.769Z,63.74
2023-04-30T06:44:23.317Z,63.87
2023-04-30T06:47:29.380Z,63.90
2023-04-30T06:50:44.155Z,64.43
2023-04-30T06:53:50.377Z,64.32
2023-04-30T06:56:57.246Z,63.17
2023-04-30T07:00:06.155Z,61.63
2023-04-30T07:03:13.303Z,61.00
2023-04-30T07:06:19.420Z,58.18
2023-04-30T07:09:26.452Z,53.57
2023-04-30T07:12:32.536Z,47.59
2023-04-30T07:15:42.576Z,45.07
2023-04-30T07:18:49.183Z,42.25
2023-04-30T07:21:55.930Z,41.80
2023-04-30T07:25:04.973Z,41.41
2023-04-30T07:28:11.952Z,40.16
2023-04-30T07:31:20.731Z,40.08
2023-04-30T07:34:28.423Z,39.43
2023-04-30T07:37:36.014Z,38.75
2023-04-30T07:40:42.859Z,39.42
2023-04-30T07:43:48.840Z,39.46
2023-04-30T07:46:58.158Z,39.52
2023-04-30T07:50:07.805Z,39.77
2023-04-30T07:53:14.652Z,41.43
2023-04-30T07:56:20.618Z,41.61
2023-04-30T07:59:27.531Z,42.22
2023-04-30T08:02:38.290Z,44.52
2023-04-30T08:05:45.330Z,45.64
2023-04-30T08:08:51.326Z,43.21
2023-04-30T08:11:58.266Z,42.11
2023-04-30T08:15:05.849Z,41.38
2023-04-30T08:18:15.530Z,40.49
2023-04-30T08:21:21.697Z,39.82
2023-04-30T08:24:28.544Z,41.73
2023-04-30T08:27:35.405Z,41.71
2023-04-30T08:30:42.661Z,40.94
2023-04-30T08:33:51.357Z,39.75
2023-04-30T08:37:00.602Z,39.53
2023-04-30T08:40:12.587Z,38.80
2023-04-30T08:43:21.773Z,37.76
2023-04-30T08:46:31.332Z,36.95
2023-04-30T08:49:41.460Z,35.85
2023-04-30T08:52:47.560Z,34.56
2023-04-30T08:55:54.541Z,34.67
2023-04-30T08:59:00.526Z,35.83
2023-04-30T09:02:08.249Z,37.15
2023-04-30T09:05:18.935Z,36.46
2023-04-30T09:08:47.740Z,34.49
2023-04-30T09:11:53.809Z,34.47
2023-04-30T09:15:06.484Z,34.52
2023-04-30T09:18:17.997Z,34.65
2023-04-30T09:21:39.723Z,32.49
2023-04-30T09:24:51.292Z,32.56
2023-04-30T09:28:12.331Z,31.25
2023-04-30T09:31:25.028Z,30.01
2023-04-30T09:34:38.479Z,30.05
2023-04-30T09:37:47.059Z,29.27
2023-04-30T09:40:54.135Z,30.98
2023-04-30T09:44:01.367Z,32.64
2023-04-30T09:47:08.850Z,33.21
2023-04-30T09:50:17.453Z,32.21
2023-04-30T09:53:26.792Z,32.69
2023-04-30T09:56:39.725Z,31.28
2023-04-30T09:59:49.765Z,29.53
2023-04-30T10:02:57.486Z,28.77
2023-04-30T10:06:05.042Z,30.77
2023-04-30T10:09:17.143Z,31.34
2023-04-30T10:12:33.256Z,30.63
2023-04-30T10:15:49.021Z,31.60
2023-04-30T10:19:02.700Z,31.11
2023-04-30T10:22:09.384Z,30.34
2023-04-30T10:25:20.019Z,28.98
2023-04-30T10:28:27.286Z,27.24
2023-04-30T10:31:35.953Z,29.62
2023-04-30T10:34:56.163Z,28.91
2023-04-30T10:38:22.125Z,28.43
2023-04-30T10:41:31.210Z,28.39
2023-04-30T10:44:40.620Z,27.65
2023-04-30T10:47:48.680Z,29.50
2023-04-30T10:50:59.933Z,29.02
2023-04-30T10:54:06.796Z,31.04
2023-04-30T10:57:20.447Z,28.96
2023-04-30T11:00:32.609Z,30.47
2023-04-30T11:03:41.488Z,31.08
2023-04-30T11:07:05.263Z,31.20
2023-04-30T11:10:12.723Z,32.48
2023-04-30T11:13:23.154Z,30.88
2023-04-30T11:16:33.554Z,30.74
2023-04-30T11:19:55.063Z,30.50
2023-04-30T11:23:22.192Z,30.01
2023-04-30T11:27:09.207Z,31.67
2023-04-30T11:30:24.885Z,29.26
2023-04-30T11:33:36.391Z,29.08
2023-04-30T11:36:51.685Z,30.46
2023-04-30T11:40:00.305Z,32.97
2023-04-30T11:43:07.046Z,29.82
2023-04-30T11:46:19.080Z,31.26
2023-04-30T11:49:26.059Z,32.04
2023-04-30T11:52:32.067Z,32.24
2023-04-30T11:55:40.579Z,31.08
2023-04-30T11:58:46.660Z,31.29
2023-04-30T12:01:57.741Z,31.38
2023-04-30T12:05:03.949Z,30.41
2023-04-30T12:08:20.091Z,30.32
2023-04-30T12:11:46.104Z,31.19
2023-04-30T12:14:53.060Z,30.73
2023-04-30T12:18:03.663Z,32.55
2023-04-30T12:21:12.192Z,29.83
2023-04-30T12:24:20.737Z,32.77
2023-04-30T12:27:28.023Z,30.84
2023-04-30T12:30:36.537Z,32.31
2023-04-30T12:33:45.943Z,32.16
2023-04-30T12:36:51.750Z,31.88
2023-04-30T12:40:00.563Z,31.41
2023-04-30T12:43:17.642Z,31.93
2023-04-30T12:46:30.737Z,31.90
2023-04-30T12:49:53.030Z,30.90
2023-04-30T12:53:05.821Z,32.51
2023-04-30T12:56:16.913Z,31.93
2023-04-30T12:59:23.795Z,34.63
2023-04-30T13:02:32.770Z,33.52
2023-04-30T13:05:43.464Z,33.60
2023-04-30T13:08:57.985Z,33.96
2023-04-30T13:12:10.192Z,34.50
2023-04-30T13:15:26.513Z,34.33
2023-04-30T13:18:33.188Z,34.00
2023-04-30T13:21:48.802Z,32.83
2023-04-30T13:24:59.934Z,33.03
2023-04-30T13:28:15.298Z,34.87
2023-04-30T13:31:22.519Z,33.69
2023-04-30T13:34:28.474Z,33.41
2023-04-30T13:37:39.792Z,33.76
2023-04-30T13:40:45.611Z,32.91
2023-04-30T13:43:52.930Z,33.53
2023-04-30T13:46:58.815Z,33.53
2023-04-30T13:50:20.130Z,33.45
2023-04-30T13:53:32.611Z,33.78
2023-04-30T13:56:39.503Z,33.84
2023-04-30T13:59:45.486Z,33.27
2023-04-30T14:02:52.691Z,34.77
2023-04-30T14:05:59.381Z,35.38
2023-04-30T14:09:09.114Z,33.92
2023-04-30T14:12:22.750Z,33.42
2023-04-30T14:15:30.931Z,32.78
2023-04-30T14:18:37.350Z,34.40
2023-04-30T14:21:46.546Z,35.65
2023-04-30T14:24:56.277Z,34.99
2023-04-30T14:28:03.037Z,33.95
2023-04-30T14:31:09.555Z,34.01
2023-04-30T14:34:20.061Z,34.66
2023-04-30T14:37:26.067Z,33.83
2023-04-30T14:40:36.010Z,34.39
2023-04-30T14:43:45.456Z,33.27
2023-04-30T14:46:52.227Z,34.31
2023-04-30T14:50:02.933Z,34.66
2023-04-30T14:53:11.719Z,35.12
2023-04-30T14:56:24.438Z,34.88
2023-04-30T14:59:32.527Z,33.43
2023-04-30T15:02:38.863Z,34.24
2023-04-30T15:05:47.160Z,34.23
2023-04-30T15:08:53.165Z,33.49
2023-04-30T15:12:05.049Z,33.66
2023-04-30T15:15:13.340Z,33.49
2023-04-30T15:18:23.165Z,33.18
2023-04-30T15:21:36.075Z,33.45
2023-04-30T15:24:42.768Z,32.53
2023-04-30T15:27:52.078Z,33.70
2023-04-30T15:30:58.783Z,34.22
2023-04-30T15:34:04.674Z,33.02
2023-04-30T15:37:11.679Z,32.06
2023-04-30T15:40:18.122Z,31.93
2023-04-30T15:43:27.754Z,30.51
2023-04-30T15:46:36.490Z,31.29
2023-04-30T15:49:43.936Z,31.42
2023-04-30T15:52:50.072Z,32.47
2023-04-30T15:55:57.515Z,32.08
2023-04-30T15:59:06.520Z,31.86
2023-04-30T16:02:14.261Z,31.82
2023-04-30T16:05:20.410Z,31.63
2023-04-30T16:08:36.597Z,31.96
2023-04-30T16:11:44.873Z,31.53
2023-04-30T16:14:54.400Z,32.07
2023-04-30T16:18:00.477Z,32.02
2023-04-30T16:21:10.805Z,31.82
2023-04-30T16:24:19.267Z,31.30
2023-04-30T16:27:26.297Z,31.56
2023-04-30T16:30:36.391Z,31.35
2023-04-30T16:33:43.459Z,31.89
2023-04-30T16:36:49.494Z,32.00
2023-04-30T16:39:58.644Z,32.19
2023-04-30T16:43:06.378Z,32.38
2023-04-30T16:46:16.553Z,32.27
2023-04-30T16:49:22.833Z,31.23
2023-04-30T16:52:30.401Z,32.14
2023-04-30T16:55:36.358Z,33.05
2023-04-30T16:58:43.111Z,33.18
2023-04-30T17:01:52.172Z,33.60
2023-04-30T17:05:02.013Z,34.25
2023-04-30T17:08:08.944Z,34.19
2023-04-30T17:11:19.374Z,34.34
2023-04-30T17:14:25.634Z,34.68
2023-04-30T17:17:35.282Z,33.71
2023-04-30T17:20:41.489Z,33.94
2023-04-30T17:23:48.245Z,33.70
2023-04-30T17:26:54.986Z,33.12
2023-04-30T17:30:01.830Z,33.85
2023-04-30T17:33:12.312Z,34.05
2023-04-30T17:36:19.254Z,34.20
2023-04-30T17:39:31.219Z,33.88
2023-04-30T17:42:39.219Z,33.96
2023-04-30T17:45:46.465Z,34.34
2023-04-30T17:48:56.529Z,34.62
2023-04-30T17:52:02.432Z,35.59
2023-04-30T17:55:11.033Z,35.88
2023-04-30T17:58:17.100Z,35.34
2023-04-30T18:01:24.409Z,36.03
2023-04-30T18:04:35.991Z,36.32
2023-04-30T18:07:42.682Z,36.20
2023-04-30T18:10:52.005Z,36.58
2023-04-30T18:13:58.965Z,37.18
2023-04-30T18:17:07.949Z,37.19
2023-04-30T18:20:19.712Z,37.73
2023-04-30T18:23:32.251Z,37.87
2023-04-30T18:26:44.608Z,37.90
2023-04-30T18:29:50.711Z,38.40
2023-04-30T18:32:57.672Z,38.55
2023-04-30T18:36:07.833Z,38.65
2023-04-30T18:39:15.187Z,38.36
2023-04-30T18:42:21.253Z,38.68
2023-04-30T18:45:41.320Z,39.07
2023-04-30T18:48:47.398Z,39.54
2023-04-30T18:51:57.586Z,39.64
2023-04-30T18:55:07.599Z,39.60
2023-04-30T18:58:15.225Z,39.71
2023-04-30T19:01:21.828Z,40.20
2023-04-30T19:04:28.803Z,40.26
2023-04-30T19:07:41.683Z,40.86
2023-04-30T19:10:56.687Z,41.34
2023-04-30T19:14:06.905Z,41.37
2023-04-30T19:17:19.443Z,41.69
2023-04-30T19:20:32.380Z,41.87
2023-04-30T19:23:42.765Z,42.41
2023-04-30T19:26:51.112Z,42.63
2023-04-30T19:29:59.502Z,43.01
2023-04-30T19:33:05.842Z,43.48
2023-04-30T19:36:12.933Z,43.71
2023-04-30T19:39:22.136Z,43.95
2023-04-30T19:42:30.659Z,43.87
2023-04-30T19:45:36.620Z,44.58
2023-04-30T19:48:43.491Z,44.46
2023-04-30T19:51:49.534Z,45.20
2023-04-30T19:54:58.911Z,45.35
2023-04-30T19:58:05.156Z,45.71
2023-04-30T20:01:13.869Z,45.92
2023-04-30T20:04:20.857Z,46.27
2023-04-30T20:07:27.931Z,46.48
2023-04-30T20:10:44.556Z,46.68
2023-04-30T20:13:51.786Z,47.36
2023-04-30T20:16:57.773Z,47.49
2023-04-30T20:20:15.636Z,47.93
2023-04-30T20:23:25.283Z,48.24
2023-04-30T20:26:34.860Z,48.39
2023-04-30T20:29:41.561Z,48.30
2023-04-30T20:32:49.561Z,48.73
2023-04-30T20:35:55.792Z,48.81
2023-04-30T20:39:04.899Z,49.00
2023-04-30T20:42:19.599Z,49.33
2023-04-30T20:45:26.527Z,49.72
2023-04-30T20:48:32.513Z,49.79
2023-04-30T20:51:41.695Z,49.66
2023-04-30T20:54:51.046Z,50.00
2023-04-30T20:58:00.471Z,49.96
2023-04-30T21:01:12.480Z,49.92
2023-04-30T21:04:19.370Z,50.27
2023-04-30T21:07:25.348Z,50.33
2023-04-30T21:10:36.863Z,50.73
2023-04-30T21:13:45.638Z,51.63
2023-04-30T21:16:52.784Z,52.26
2023-04-30T21:19:59.564Z,53.20
2023-04-30T21:23:06.341Z,54.60
2023-04-30T21:26:12.612Z,55.13
2023-04-30T21:29:22.170Z,55.25
2023-04-30T21:32:28.275Z,55.65
2023-04-30T21:35:36.105Z,55.18
2023-04-30T21:38:42.560Z,54.70
2023-04-30T21:41:49.458Z,54.62
2023-04-30T21:44:58.600Z,54.87
2023-04-30T21:48:05.913Z,54.85
2023-04-30T21:51:17.222Z,55.06
2023-04-30T21:54:24.138Z,55.11
2023-04-30T21:57:30.138Z,55.87
2023-04-30T22:00:39.886Z,56.95
2023-04-30T22:03:46.423Z,57.57
2023-04-30T22:06:53.337Z,57.80
2023-04-30T22:09:59.469Z,57.52
2023-04-30T22:13:06.244Z,57.84
2023-04-30T22:16:14.818Z,57.86
2023-04-30T22:19:21.541Z,57.73
2023-04-30T22:22:28.016Z,58.01
2023-04-30T22:25:34.731Z,58.84
2023-04-30T22:28:40.808Z,59.01
2023-04-30T22:31:50.242Z,59.35
2023-04-30T22:34:56.482Z,59.32
2023-04-30T22:38:03.850Z,59.50
2023-04-30T22:41:09.892Z,59.65
2023-04-30T22:44:17.940Z,60.45
2023-04-30T22:47:27.701Z,60.69
2023-04-30T22:50:34.722Z,60.55
2023-04-30T22:53:40.833Z,60.90
2023-04-30T22:56:47.612Z,60.86
2023-04-30T22:59:54.303Z,61.89
2023-04-30T23:03:03.933Z,61.98
2023-04-30T23:06:09.981Z,60.86
2023-04-30T23:09:16.829Z,59.98
2023-04-30T23:12:22.826Z,60.73
2023-04-30T23:15:29.868Z,61.08
2023-04-30T23:18:39.828Z,61.57
2023-04-30T23:21:46.553Z,62.39
2023-04-30T23:24:52.487Z,62.13
2023-04-30T23:27:59.648Z,62.45
2023-04-30T23:31:05.977Z,62.45
2023-04-30T23:34:15.501Z,62.77
2023-04-30T23:37:21.982Z,62.59
2023-04-30T23:40:31.505Z,63.50
2023-04-30T23:43:37.568Z,63.84
2023-04-30T23:46:44.468Z,64.43
2023-04-30T23:49:53.259Z,64.36
2023-04-30T23:53:00.013Z,63.92
2023-04-30T23:56:06.512Z,64.05
2023-04-30T23:59:15.569Z,62.29
